createdAt,value
2019-04-27T06:31:59.368Z,0.68
2019-04-27T06:37:58.717Z,0.47
2019-04-27T06:43:59.276Z,0.74
2019-04-27T06:49:58.839Z,0.74
2019-04-27T06:55:58.803Z,0.38
2019-04-27T07:02:00.570Z,0.45
2019-04-27T07:07:59.151Z,0.46
2019-04-27T07:13:59.424Z,0.63
2019-04-27T07:19:59.469Z,0.26
2019-04-27T07:25:59.862Z,0.34
2019-04-27T07:31:59.658Z,0.49
2019-04-27T07:37:58.955Z,0.35
2019-04-27T07:43:58.777Z,0.39
2019-04-27T07:50:01.674Z,0.72
2019-04-27T07:55:59.338Z,0.12
2019-04-27T08:01:59.174Z,0.31
2019-04-27T08:08:00.174Z,0.55
2019-04-27T08:13:58.932Z,0.27
2019-04-27T08:19:59.584Z,0.62
2019-04-27T08:25:58.968Z,0.53
2019-04-27T08:31:58.855Z,0.73
2019-04-27T08:37:59.404Z,0.42
2019-04-27T08:43:58.837Z,0.33
2019-04-27T08:49:59.168Z,0.39
2019-04-27T08:55:59.244Z,0.51
2019-04-27T09:01:58.844Z,0.39
2019-04-27T09:07:59.724Z,0.45
2019-04-27T09:14:16.884Z,0.39
2019-04-27T09:19:59.117Z,1.09
2019-04-27T09:25:59.502Z,0.51
2019-04-27T09:32:01.528Z,1.05
2019-04-27T09:37:58.867Z,0.70
2019-04-27T09:43:58.813Z,0.55
2019-04-27T09:49:58.781Z,1.16
2019-04-27T09:55:58.885Z,0.72
2019-04-27T10:01:58.885Z,0.70
2019-04-27T10:07:58.811Z,0.78
2019-04-27T10:13:58.872Z,0.92
2019-04-27T10:19:58.819Z,0.65
2019-04-27T10:25:58.920Z,0.57
2019-04-27T10:31:58.965Z,0.96
2019-04-27T10:37:58.816Z,0.88
2019-04-27T10:43:58.892Z,0.88
2019-04-27T10:49:58.890Z,0.92
2019-04-27T10:55:58.942Z,1.10
2019-04-27T11:01:58.839Z,1.82
2019-04-27T11:07:58.897Z,1.04
2019-04-27T11:14:00.924Z,1.39
2019-04-27T11:19:58.874Z,1.64
2019-04-27T11:26:02.315Z,1.29
2019-04-27T11:31:58.948Z,1.16
2019-04-27T11:37:58.899Z,1.56
2019-04-27T11:43:58.834Z,0.88
2019-04-27T11:49:58.864Z,0.52
2019-04-27T11:55:58.923Z,0.52
2019-04-27T12:01:58.956Z,0.79
2019-04-27T12:07:58.929Z,0.85
2019-04-27T12:13:58.856Z,1.26
2019-04-27T12:19:58.968Z,1.45
2019-04-27T12:25:58.885Z,1.74
2019-04-27T12:32:45.690Z,1.64
2019-04-27T12:38:46.705Z,1.05
2019-04-27T12:44:44.903Z,0.71
2019-04-27T12:50:46.234Z,0.84
2019-04-27T12:56:45.778Z,0.61
2019-04-27T13:02:45.001Z,0.61
2019-04-27T13:08:45.796Z,0.41
2019-04-27T13:14:45.759Z,0.48
2019-04-27T13:20:44.908Z,0.51
2019-04-27T13:26:45.647Z,0.52
2019-04-27T13:32:45.960Z,0.40
2019-04-27T13:38:46.635Z,0.41
2019-04-27T13:44:45.603Z,0.95
2019-04-27T13:50:45.711Z,1.19
2019-04-27T13:56:46.005Z,0.46
2019-04-27T14:02:45.009Z,0.22
2019-04-27T14:08:45.045Z,0.05
2019-04-27T14:14:45.095Z,0.08
2019-04-27T14:20:46.037Z,0.09
2019-04-27T14:26:44.994Z,0.09
2019-04-27T14:32:45.014Z,0.13
